Terminal Aerodrome Forecast
Issued by NWS Binghamton, NY

Home | Current Version | Previous Version | Text Only | Print | Product List | Glossary On
Versions: 1 2 3 4 5 6 7 8 9 10 11 12 13 14 15 16 17 18 19 20 21 22 23 24
000
FTUS41 KBGM 221750
TAFSYR
TAF
KSYR 221750Z 2218/2318 07005KT P6SM SCT005 OVC080
     FM230000 08006KT P6SM OVC008
     FM230400 09008KT P6SM OVC010
     FM230900 09011KT P6SM OVC020
     FM231300 09012G21KT P6SM OVC040=

USA.gov is the U.S. government's official web portal to all federal, state and local government web resources and services.